Island Lookout — WDF6311 — position and weather

sailwx.info

Track history (hours):
 
Tides and Currents Weather Stations Pressure Air Temp Water Temp Dewpoint Dewpoint Depression Visibility Wind Speed Wind Dir Waves Ship Positions

Island Lookout

Owner: Stevens Towing Company Inc., Yonges Island, SC. More information available from US FCC via Universal Licensing System and Coast Guard Vessel Documentation Center.

Last reported at 2016-Sep-25 11:23 UTC. Time now 2016-Sep-28 10:21 UTC.
Position N 36°43' W 076°13'.

Length 22 m; draft 2.9 m.

Type: Towing. MMSI: 367472930.

Date/timePositionNaut miles runAvg speedWind from/ knotsBaromVisibWave heightAir tempDewpointWater temp
2016-Sep-25 11:23N 36°43' W 076°13'5 0.1
2016-Sep-23 19:33N 36°47' W 076°18'0 0.0
2016-Sep-23 17:34N 36°47' W 076°18'0 0.0
2016-Sep-23 16:33N 36°47' W 076°18'0 0.0
2016-Sep-23 15:34N 36°47' W 076°18'0 0.0
2016-Sep-23 13:34N 36°47' W 076°18'0 0.0
2016-Sep-23 09:33N 36°47' W 076°18'0 0.0
2016-Sep-23 06:34N 36°47' W 076°18'0 0.0
2016-Sep-23 04:33N 36°47' W 076°18'2 1.9
2016-Sep-23 03:33N 36°49' W 076°17'6 5.8
2016-Sep-23 02:33N 36°54' W 076°20'134 6.0
2016-Sep-22 04:26N 39°08' W 076°24'5 5.9
2016-Sep-22 03:33N 39°11' W 076°28'5 1.7
2016-Sep-22 00:33N 39°12' W 076°35'0 0.0
2016-Sep-21 23:34N 39°12' W 076°35'0 0.0
2016-Sep-21 22:34N 39°12' W 076°35'0 0.0
2016-Sep-21 19:34N 39°12' W 076°35'4 1.3
2016-Sep-21 16:21N 39°13' W 076°30'4 0.6
2016-Sep-21 09:34N 39°12' W 076°35'0 0.0
2016-Sep-21 08:34N 39°12' W 076°35'0 0.0
2016-Sep-21 05:33N 39°12' W 076°35'0 0.0
2016-Sep-21 03:34N 39°12' W 076°35'0 0.0
2016-Sep-21 02:33N 39°12' W 076°35'0 0.0
2016-Sep-20 17:33N 39°12' W 076°35'0 0.0
2016-Sep-20 13:32N 39°12' W 076°35'5 1.5
2016-Sep-20 10:29N 39°17' W 076°36'0 0.0
2016-Sep-20 02:17N 39°17' W 076°36'5 1.6
2016-Sep-19 23:24N 39°12' W 076°35'0 0.0
2016-Sep-19 19:30N 39°12' W 076°35'0 0.1
2016-Sep-19 16:27N 39°13' W 076°35'4 2.2
2016-Sep-19 14:34N 39°17' W 076°36'0 0.0
2016-Sep-19 13:32N 39°17' W 076°36'0 0.0
2016-Sep-19 12:33N 39°17' W 076°36'0 0.0
2016-Sep-19 11:33N 39°17' W 076°36'0 0.0
2016-Sep-19 09:33N 39°17' W 076°36'0 0.0
2016-Sep-19 07:33N 39°17' W 076°36'0 0.0
2016-Sep-19 06:33N 39°17' W 076°36'0 0.0
2016-Sep-19 03:33N 39°17' W 076°36'0 0.0
2016-Sep-19 02:34N 39°17' W 076°36'0 0.0
2016-Sep-19 00:33N 39°17' W 076°36'0 0.0
2016-Sep-18 19:33N 39°17' W 076°36'9 2.3
2016-Sep-18 15:33N 39°11' W 076°27'7 6.4
2016-Sep-18 14:28N 39°04' W 076°24'131 6.8
2016-Sep-17 19:10N 36°53' W 076°20'16 2.8
2016-Sep-17 13:32N 36°43' W 076°06'  
Track history (hours):
 
Tides and Currents Weather Stations Pressure Air Temp Water Temp Dewpoint Dewpoint Depression Visibility Wind Speed Wind Dir Waves Ship Positions

Island Lookout

Owner: Stevens Towing Company Inc., Yonges Island, SC. More information available from US FCC via Universal Licensing System and Coast Guard Vessel Documentation Center.

Last reported at 2016-Sep-25 11:23 UTC. Time now 2016-Sep-28 10:21 UTC.
Position N 36°43' W 076°13'.

Length 22 m; draft 2.9 m.

Type: Towing. MMSI: 367472930.

Date/timePositionNaut miles runAvg speedWind from/ knotsBaromVisibWave heightAir tempDewpointWater temp
2016-Sep-25 11:23N 36°43' W 076°13'5 0.1
2016-Sep-23 19:33N 36°47' W 076°18'0 0.0
2016-Sep-23 17:34N 36°47' W 076°18'0 0.0
2016-Sep-23 16:33N 36°47' W 076°18'0 0.0
2016-Sep-23 15:34N 36°47' W 076°18'0 0.0
2016-Sep-23 13:34N 36°47' W 076°18'0 0.0
2016-Sep-23 09:33N 36°47' W 076°18'0 0.0
2016-Sep-23 06:34N 36°47' W 076°18'0 0.0
2016-Sep-23 04:33N 36°47' W 076°18'2 1.9
2016-Sep-23 03:33N 36°49' W 076°17'6 5.8
2016-Sep-23 02:33N 36°54' W 076°20'134 6.0
2016-Sep-22 04:26N 39°08' W 076°24'5 5.9
2016-Sep-22 03:33N 39°11' W 076°28'5 1.7
2016-Sep-22 00:33N 39°12' W 076°35'0 0.0
2016-Sep-21 23:34N 39°12' W 076°35'0 0.0
2016-Sep-21 22:34N 39°12' W 076°35'0 0.0
2016-Sep-21 19:34N 39°12' W 076°35'4 1.3
2016-Sep-21 16:21N 39°13' W 076°30'4 0.6
2016-Sep-21 09:34N 39°12' W 076°35'0 0.0
2016-Sep-21 08:34N 39°12' W 076°35'0 0.0
2016-Sep-21 05:33N 39°12' W 076°35'0 0.0
2016-Sep-21 03:34N 39°12' W 076°35'0 0.0
2016-Sep-21 02:33N 39°12' W 076°35'0 0.0
2016-Sep-20 17:33N 39°12' W 076°35'0 0.0
2016-Sep-20 13:32N 39°12' W 076°35'5 1.5
2016-Sep-20 10:29N 39°17' W 076°36'0 0.0
2016-Sep-20 02:17N 39°17' W 076°36'5 1.6
2016-Sep-19 23:24N 39°12' W 076°35'0 0.0
2016-Sep-19 19:30N 39°12' W 076°35'0 0.1
2016-Sep-19 16:27N 39°13' W 076°35'4 2.2
2016-Sep-19 14:34N 39°17' W 076°36'0 0.0
2016-Sep-19 13:32N 39°17' W 076°36'0 0.0
2016-Sep-19 12:33N 39°17' W 076°36'0 0.0
2016-Sep-19 11:33N 39°17' W 076°36'0 0.0
2016-Sep-19 09:33N 39°17' W 076°36'0 0.0
2016-Sep-19 07:33N 39°17' W 076°36'0 0.0
2016-Sep-19 06:33N 39°17' W 076°36'0 0.0
2016-Sep-19 03:33N 39°17' W 076°36'0 0.0
2016-Sep-19 02:34N 39°17' W 076°36'0 0.0
2016-Sep-19 00:33N 39°17' W 076°36'0 0.0
2016-Sep-18 19:33N 39°17' W 076°36'9 2.3
2016-Sep-18 15:33N 39°11' W 076°27'7 6.4
2016-Sep-18 14:28N 39°04' W 076°24'131 6.8
2016-Sep-17 19:10N 36°53' W 076°20'16 2.8
2016-Sep-17 13:32N 36°43' W 076°06'  

Dump ship's entire track history